createdAt,value
2023-04-21T00:04:50.318Z,81.29
2023-04-21T00:09:58.000Z,81.79
2023-04-21T00:15:06.077Z,82.38
2023-04-21T00:20:14.818Z,82.67
2023-04-21T00:25:23.183Z,82.92
2023-04-21T00:30:30.626Z,83.19
2023-04-21T00:35:39.018Z,83.63
2023-04-21T00:40:46.338Z,83.99
2023-04-21T00:45:53.627Z,84.04
2023-04-21T00:51:00.881Z,84.16
2023-04-21T00:56:08.859Z,84.20
2023-04-21T01:01:16.301Z,84.29
2023-04-21T01:06:24.270Z,84.65
2023-04-21T01:11:31.914Z,84.86
2023-04-21T01:16:40.105Z,84.89
2023-04-21T01:21:47.396Z,84.89
2023-04-21T01:26:54.807Z,85.09
2023-04-21T01:32:05.208Z,85.57
2023-04-21T01:37:14.462Z,85.99
2023-04-21T01:42:24.074Z,86.03
2023-04-21T01:47:31.452Z,86.00
2023-04-21T01:52:39.102Z,86.38
2023-04-21T01:57:46.652Z,86.46
2023-04-21T02:02:53.907Z,87.01
2023-04-21T02:08:03.220Z,87.25
2023-04-21T02:13:11.040Z,86.90
2023-04-21T02:18:20.438Z,86.53
2023-04-21T02:23:28.198Z,86.43
2023-04-21T02:28:35.754Z,86.67
2023-04-21T02:33:43.385Z,86.72
2023-04-21T02:38:52.897Z,86.39
2023-04-21T02:44:00.519Z,86.12
2023-04-21T02:49:08.603Z,86.67
2023-04-21T02:54:15.974Z,86.48
2023-04-21T02:59:23.388Z,87.10
2023-04-21T03:04:32.930Z,87.22
2023-04-21T03:09:40.600Z,86.91
2023-04-21T03:14:48.119Z,87.60
2023-04-21T03:19:55.309Z,87.71
2023-04-21T03:25:02.929Z,87.83
2023-04-21T03:30:14.275Z,88.25
2023-04-21T03:38:10.019Z,88.44
2023-04-21T03:43:17.119Z,88.15
2023-04-21T03:48:22.674Z,88.21
2023-04-21T03:53:29.771Z,88.90
2023-04-21T03:58:35.778Z,89.52
2023-04-21T04:03:43.026Z,88.95
2023-04-21T04:08:50.507Z,88.57
2023-04-21T04:13:58.122Z,89.29
2023-04-21T04:19:05.186Z,89.71
2023-04-21T04:24:14.223Z,89.55
2023-04-21T04:29:22.002Z,90.01
2023-04-21T04:34:29.153Z,91.01
2023-04-21T04:39:34.595Z,90.97
2023-04-21T04:44:42.717Z,90.60
2023-04-21T04:49:49.810Z,90.87
2023-04-21T04:54:57.084Z,90.76
2023-04-21T05:05:33.692Z,91.14
2023-04-21T05:10:41.006Z,90.82
2023-04-21T05:15:48.521Z,89.87
2023-04-21T05:20:56.929Z,89.39
2023-04-21T05:26:04.968Z,88.54
2023-04-21T05:31:12.607Z,87.58
2023-04-21T05:36:20.781Z,86.02
2023-04-21T05:41:28.312Z,84.74
2023-04-21T05:46:36.195Z,83.55
2023-04-21T05:51:44.416Z,82.28
2023-04-21T05:56:51.695Z,81.36
2023-04-21T06:01:59.547Z,80.02
2023-04-21T06:07:10.826Z,78.47
2023-04-21T06:12:18.706Z,78.13
2023-04-21T06:17:27.092Z,77.56
2023-04-21T06:22:34.148Z,75.62
2023-04-21T06:27:41.479Z,73.05
2023-04-21T06:32:49.383Z,73.72
2023-04-21T06:37:59.886Z,72.80
2023-04-21T06:43:07.714Z,72.82
2023-04-21T06:48:15.526Z,72.88
2023-04-21T06:53:23.151Z,70.01
2023-04-21T06:58:30.390Z,67.59
2023-04-21T07:03:38.323Z,67.58
2023-04-21T07:08:46.406Z,67.69
2023-04-21T07:13:53.867Z,65.61
2023-04-21T07:19:01.603Z,64.05
2023-04-21T07:24:10.432Z,63.89
2023-04-21T07:29:18.376Z,62.86
2023-04-21T07:34:26.068Z,59.77
2023-04-21T07:39:33.556Z,59.12
2023-04-21T07:44:41.262Z,58.70
2023-04-21T07:49:48.552Z,58.90
2023-04-21T07:54:56.270Z,59.90
2023-04-21T08:00:04.452Z,60.12
2023-04-21T08:05:12.668Z,58.62
2023-04-21T08:10:20.054Z,57.47
2023-04-21T08:15:27.592Z,57.65
2023-04-21T08:20:35.206Z,57.06
2023-04-21T08:25:42.896Z,57.38
2023-04-21T08:30:52.617Z,56.68
2023-04-21T08:36:07.391Z,55.24
2023-04-21T08:41:20.858Z,54.11
2023-04-21T08:46:31.135Z,54.18
2023-04-21T08:51:38.839Z,53.61
2023-04-21T08:56:46.171Z,54.15
2023-04-21T09:02:17.242Z,54.01
2023-04-21T09:07:44.437Z,54.60
2023-04-21T09:12:52.080Z,53.54
2023-04-21T09:17:59.719Z,51.99
2023-04-21T09:23:09.346Z,49.71
2023-04-21T09:28:17.205Z,49.21
2023-04-21T09:33:30.992Z,49.30
2023-04-21T09:38:41.956Z,48.81
2023-04-21T09:43:49.702Z,48.85
2023-04-21T09:49:01.622Z,47.87
2023-04-21T09:54:28.206Z,47.23
2023-04-21T09:59:39.290Z,43.04
2023-04-21T10:04:47.423Z,43.09
2023-04-21T10:09:59.507Z,44.01
2023-04-21T10:15:39.348Z,41.83
2023-04-21T10:21:03.019Z,42.65
2023-04-21T10:26:13.562Z,40.72
2023-04-21T10:31:27.339Z,39.51
2023-04-21T10:36:36.253Z,40.63
2023-04-21T10:41:46.639Z,42.05
2023-04-21T10:46:55.198Z,41.72
2023-04-21T10:52:12.550Z,40.50
2023-04-21T10:57:21.541Z,40.86
2023-04-21T11:02:29.284Z,40.43
2023-04-21T11:07:37.179Z,40.42
2023-04-21T11:12:44.317Z,40.83
2023-04-21T11:17:52.900Z,41.13
2023-04-21T11:23:00.965Z,41.26
2023-04-21T11:28:09.091Z,41.23
2023-04-21T11:33:17.155Z,41.09
2023-04-21T11:38:27.367Z,42.95
2023-04-21T11:43:35.316Z,41.98
2023-04-21T11:48:42.661Z,41.46
2023-04-21T11:53:51.862Z,40.89
2023-04-21T11:58:59.322Z,40.65
2023-04-21T12:04:07.294Z,40.24
2023-04-21T12:09:21.104Z,38.12
2023-04-21T12:14:29.063Z,39.06
2023-04-21T12:19:42.621Z,39.56
2023-04-21T12:24:50.347Z,38.83
2023-04-21T12:29:58.309Z,37.36
2023-04-21T12:35:06.470Z,37.92
2023-04-21T12:40:14.725Z,38.28
2023-04-21T12:45:22.203Z,36.78
2023-04-21T12:50:29.849Z,36.07
2023-04-21T12:55:41.240Z,36.46
2023-04-21T13:00:50.394Z,36.02
2023-04-21T13:05:58.438Z,36.18
2023-04-21T13:11:06.637Z,35.72
2023-04-21T13:16:14.213Z,35.49
2023-04-21T13:21:21.716Z,35.17
2023-04-21T13:26:29.659Z,35.93
2023-04-21T13:31:37.661Z,35.19
2023-04-21T13:36:45.167Z,33.28
2023-04-21T13:41:54.101Z,34.54
2023-04-21T13:47:02.247Z,35.48
2023-04-21T13:52:10.003Z,36.09
2023-04-21T13:57:19.224Z,35.51
2023-04-21T14:02:27.040Z,35.41
2023-04-21T14:07:36.040Z,35.62
2023-04-21T14:12:45.238Z,35.65
2023-04-21T14:17:53.402Z,34.62
2023-04-21T14:23:00.937Z,34.10
2023-04-21T14:28:09.089Z,34.38
2023-04-21T14:33:17.198Z,34.74
2023-04-21T14:38:25.824Z,34.47
2023-04-21T14:43:33.474Z,33.53
2023-04-21T14:48:43.366Z,34.37
2023-04-21T14:53:50.831Z,35.60
2023-04-21T14:58:58.590Z,35.29
2023-04-21T15:04:06.813Z,35.23
2023-04-21T15:09:14.753Z,34.42
2023-04-21T15:14:22.148Z,35.86
2023-04-21T15:19:29.625Z,34.29
2023-04-21T15:24:38.012Z,35.31
2023-04-21T15:29:45.488Z,36.08
2023-04-21T15:34:52.976Z,36.32
2023-04-21T15:40:00.298Z,37.00
2023-04-21T15:45:09.347Z,36.33
2023-04-21T15:54:42.405Z,35.73
2023-04-21T15:59:49.722Z,36.12
2023-04-21T16:04:57.218Z,36.61
2023-04-21T16:10:04.560Z,36.37
2023-04-21T16:15:23.637Z,36.41
2023-04-21T16:20:32.014Z,36.67
2023-04-21T16:25:40.443Z,36.98
2023-04-21T16:30:48.519Z,37.78
2023-04-21T16:35:57.726Z,38.01
2023-04-21T16:41:06.992Z,37.53
2023-04-21T16:46:14.534Z,38.06
2023-04-21T16:51:22.037Z,38.09
2023-04-21T16:56:29.660Z,37.26
2023-04-21T17:01:36.888Z,37.78
2023-04-21T17:06:44.450Z,38.06
2023-04-21T17:11:51.665Z,38.18
2023-04-21T17:16:59.078Z,38.60
2023-04-21T17:22:06.583Z,38.85
2023-04-21T17:27:13.869Z,39.35
2023-04-21T17:32:21.596Z,39.82
2023-04-21T17:37:30.495Z,39.80
2023-04-21T17:42:37.947Z,40.96
2023-04-21T17:47:45.610Z,40.73
2023-04-21T17:52:53.379Z,42.54
2023-04-21T17:58:00.498Z,43.53
2023-04-21T18:03:08.071Z,44.56
2023-04-21T18:08:16.435Z,45.21
2023-04-21T18:13:23.817Z,45.66
2023-04-21T18:18:32.140Z,47.75
2023-04-21T18:23:39.388Z,48.48
2023-04-21T18:28:46.983Z,49.24
2023-04-21T18:33:54.364Z,48.81
2023-04-21T18:39:02.177Z,49.85
2023-04-21T18:44:09.824Z,50.67
2023-04-21T18:49:17.105Z,52.67
2023-04-21T18:54:24.525Z,52.87
2023-04-21T18:59:32.147Z,52.86
2023-04-21T19:04:39.895Z,53.62
2023-04-21T19:09:47.494Z,54.14
2023-04-21T19:14:54.748Z,54.62
2023-04-21T19:20:02.596Z,55.95
2023-04-21T19:25:12.160Z,57.22
2023-04-21T19:30:19.751Z,58.45
2023-04-21T19:35:28.124Z,59.25
2023-04-21T19:40:35.959Z,59.67
2023-04-21T19:45:43.324Z,60.64
2023-04-21T19:50:51.026Z,60.90
2023-04-21T19:55:58.425Z,61.30
2023-04-21T20:01:05.931Z,61.93
2023-04-21T20:06:13.650Z,62.47
2023-04-21T20:11:21.251Z,63.71
2023-04-21T20:16:29.284Z,64.57
2023-04-21T20:21:36.580Z,64.95
2023-04-21T20:26:43.831Z,65.23
2023-04-21T20:31:51.022Z,65.48
2023-04-21T20:36:58.438Z,66.43
2023-04-21T20:42:12.744Z,67.32
2023-04-21T20:47:22.115Z,68.08
2023-04-21T20:52:29.749Z,68.64
2023-04-21T20:57:36.931Z,69.33
2023-04-21T21:02:42.452Z,69.84
2023-04-21T21:07:49.905Z,70.34
2023-04-21T21:12:58.328Z,70.33
2023-04-21T21:18:05.772Z,70.28
2023-04-21T21:23:13.138Z,70.39
2023-04-21T21:28:21.065Z,70.45
2023-04-21T21:33:28.368Z,70.44
2023-04-21T21:38:36.197Z,70.93
2023-04-21T21:43:43.460Z,71.68
2023-04-21T21:48:51.513Z,72.00
2023-04-21T21:53:58.616Z,72.19
2023-04-21T21:59:04.073Z,72.59
2023-04-21T22:04:11.833Z,72.54
2023-04-21T22:09:19.608Z,72.64
2023-04-21T22:14:26.940Z,73.58
2023-04-21T22:19:34.232Z,74.17
2023-04-21T22:24:41.508Z,74.67
2023-04-21T22:29:47.250Z,74.48
2023-04-21T22:34:54.394Z,74.55
2023-04-21T22:40:02.303Z,74.50
2023-04-21T22:45:11.763Z,74.24
2023-04-21T22:50:20.004Z,74.69
2023-04-21T22:55:27.192Z,75.36
2023-04-21T23:00:32.666Z,75.21
2023-04-21T23:05:39.969Z,75.00
2023-04-21T23:10:47.775Z,75.03
2023-04-21T23:15:55.006Z,74.69
2023-04-21T23:21:00.550Z,74.88
2023-04-21T23:26:07.857Z,74.42
2023-04-21T23:31:15.007Z,74.88
2023-04-21T23:36:21.324Z,74.90
2023-04-21T23:41:28.757Z,74.69
2023-04-21T23:46:36.886Z,75.16
2023-04-21T23:51:44.269Z,75.51
2023-04-21T23:56:49.850Z,75.39
